Time;durP1;ratioP1;P1;durP2;ratioP2;P2;SDS_P1;SDS_P2;PMS_P1;PMS_P2;Temp;Humidity;BMP_temperature;BMP_pressure;BME280_temperature;BME280_humidity;BME280_pressure;Samples;Min_cycle;Max_cycle;Signal;HPM_P1;HPM_P2
2021/03/07 00:02:11;;;;;;;3.67;2.30;;;2.60;72.40;;;;;;4915253;29;20524;-87
2021/03/07 00:04:37;;;;;;;4.10;2.17;;;2.50;72.40;;;;;;4914645;29;20471;-87
2021/03/07 00:07:02;;;;;;;4.45;2.30;;;2.60;72.50;;;;;;4898708;29;20179;-88
2021/03/07 00:09:28;;;;;;;2.85;2.22;;;2.50;72.60;;;;;;4915946;29;20051;-88
2021/03/07 00:11:53;;;;;;;4.18;2.53;;;2.60;72.70;;;;;;4916546;29;20515;-87
2021/03/07 00:14:19;;;;;;;3.33;2.10;;;2.60;72.90;;;;;;4915587;29;20356;-86
2021/03/07 00:16:45;;;;;;;3.67;2.10;;;2.60;73.10;;;;;;4914991;29;20524;-87
2021/03/07 00:19:10;;;;;;;4.55;2.35;;;2.60;73.10;;;;;;4915921;29;20024;-88
2021/03/07 00:21:36;;;;;;;2.72;2.13;;;2.60;73.40;;;;;;4916897;29;20067;-89
2021/03/07 00:24:02;;;;;;;2.90;2.00;;;2.60;73.40;;;;;;4916780;29;20067;-89
2021/03/07 00:26:28;;;;;;;6.07;2.42;;;2.60;73.50;;;;;;4896910;29;20035;-88
2021/03/07 00:28:53;;;;;;;3.15;1.90;;;2.70;73.60;;;;;;4924776;29;20023;-88
2021/03/07 00:31:19;;;;;;;3.33;2.42;;;2.70;73.70;;;;;;4927768;29;20483;-90
2021/03/07 00:33:44;;;;;;;4.15;2.17;;;2.70;73.90;;;;;;4899279;29;20476;-89
2021/03/07 00:36:10;;;;;;;3.60;2.17;;;2.70;74.00;;;;;;4915737;29;20044;-89
2021/03/07 00:38:35;;;;;;;3.63;2.00;;;2.70;73.90;;;;;;4926361;29;20480;-87
2021/03/07 00:41:01;;;;;;;3.03;2.00;;;2.70;74.00;;;;;;4915548;29;20119;-87
2021/03/07 00:43:26;;;;;;;3.45;2.25;;;2.80;74.00;;;;;;4915864;29;20099;-88
2021/03/07 00:45:52;;;;;;;4.65;2.20;;;2.80;74.10;;;;;;4914561;29;20399;-88
2021/03/07 00:48:17;;;;;;;3.10;2.50;;;2.80;74.20;;;;;;4915403;29;20024;-88
2021/03/07 00:50:43;;;;;;;3.30;1.98;;;2.80;74.20;;;;;;4896703;29;20428;-89
2021/03/07 00:53:09;;;;;;;2.88;2.10;;;2.80;74.20;;;;;;4909719;29;20075;-86
2021/03/07 00:55:34;;;;;;;4.38;2.33;;;2.80;74.40;;;;;;4895815;29;20036;-86
2021/03/07 00:58:00;;;;;;;2.90;1.80;;;2.80;74.40;;;;;;4919176;29;20040;-88
2021/03/07 01:00:28;;;;;;;5.85;3.00;;;2.80;74.30;;;;;;4905573;29;20032;-88
2021/03/07 01:02:54;;;;;;;5.15;2.60;;;2.80;74.60;;;;;;4908794;29;20028;-88
2021/03/07 01:05:22;;;;;;;5.25;2.83;;;2.70;74.60;;;;;;4914439;29;20051;-86
2021/03/07 01:07:48;;;;;;;4.55;2.40;;;2.80;74.80;;;;;;4914037;29;20050;-85
2021/03/07 01:10:20;;;;;;;4.60;2.70;;;2.80;74.80;;;;;;4906706;29;20033;-86
2021/03/07 01:12:50;;;;;;;3.63;2.42;;;2.80;75.00;;;;;;4887579;29;20539;-87
2021/03/07 01:15:21;;;;;;;3.50;2.50;;;2.80;75.10;;;;;;4914210;29;20025;-87
2021/03/07 01:17:47;;;;;;;4.47;2.30;;;2.70;75.30;;;;;;4897259;29;20083;-87
2021/03/07 01:20:16;;;;;;;4.60;2.38;;;2.70;75.20;;;;;;4914678;29;20068;-87
2021/03/07 01:22:42;;;;;;;4.93;2.25;;;2.80;75.20;;;;;;4915426;29;20087;-88
2021/03/07 01:25:08;;;;;;;4.57;2.38;;;2.80;75.10;;;;;;4913603;29;20040;-88
2021/03/07 01:27:34;;;;;;;5.07;2.13;;;2.80;75.10;;;;;;4910700;29;20047;-87
2021/03/07 01:30:00;;;;;;;5.10;2.58;;;2.80;75.30;;;;;;4882520;29;20025;-87
2021/03/07 01:32:26;;;;;;;3.15;1.90;;;2.80;75.20;;;;;;4927255;29;20038;-87
2021/03/07 01:34:52;;;;;;;3.95;2.20;;;2.80;75.10;;;;;;4913908;29;20035;-86
2021/03/07 01:37:17;;;;;;;3.08;1.95;;;2.80;75.10;;;;;;4898213;29;20036;-88
2021/03/07 01:39:43;;;;;;;3.95;2.45;;;2.80;75.10;;;;;;4901945;29;20039;-87
2021/03/07 01:42:12;;;;;;;4.03;2.30;;;2.80;75.10;;;;;;4918321;29;20043;-87
2021/03/07 01:44:38;;;;;;;5.28;2.30;;;2.80;75.10;;;;;;4919086;29;20020;-86
2021/03/07 01:47:04;;;;;;;3.03;1.98;;;2.80;75.20;;;;;;4920012;29;20047;-86
2021/03/07 01:49:30;;;;;;;2.72;1.73;;;2.80;75.30;;;;;;4917773;29;20039;-86
2021/03/07 01:51:56;;;;;;;2.38;1.83;;;2.80;75.20;;;;;;4913924;29;20585;-86
2021/03/07 01:54:22;;;;;;;4.05;2.55;;;2.80;75.20;;;;;;4916700;29;20151;-87
2021/03/07 01:56:50;;;;;;;4.03;2.30;;;2.80;75.30;;;;;;4914237;29;20076;-86
2021/03/07 01:59:20;;;;;;;4.55;2.10;;;2.80;75.40;;;;;;4917581;29;20220;-88
2021/03/07 02:01:48;;;;;;;3.60;1.70;;;2.80;75.50;;;;;;4899603;29;20032;-85
2021/03/07 02:04:14;;;;;;;3.15;1.70;;;2.80;75.40;;;;;;4900714;29;20124;-88
2021/03/07 02:06:40;;;;;;;2.83;1.90;;;2.70;75.30;;;;;;4917989;29;20423;-85
2021/03/07 02:09:06;;;;;;;4.75;2.05;;;2.70;75.30;;;;;;4917401;29;20036;-87
2021/03/07 02:11:34;;;;;;;5.15;2.33;;;2.70;75.30;;;;;;4915371;29;20028;-88
2021/03/07 02:14:01;;;;;;;3.17;2.15;;;2.70;75.30;;;;;;4910553;29;20040;-86
2021/03/07 02:16:27;;;;;;;3.10;1.73;;;2.70;75.30;;;;;;4894814;29;20036;-86
2021/03/07 02:18:54;;;;;;;3.35;1.90;;;2.70;75.40;;;;;;4916689;29;20024;-85
2021/03/07 02:21:24;;;;;;;4.85;2.20;;;2.70;75.30;;;;;;4891810;29;20033;-86
2021/03/07 02:24:09;;;;;;;3.25;1.90;;;2.70;75.30;;;;;;4915952;29;20391;-85
2021/03/07 02:26:39;;;;;;;3.03;1.83;;;2.70;75.30;;;;;;4915030;29;20043;-86
2021/03/07 02:29:07;;;;;;;4.00;1.92;;;2.70;75.20;;;;;;4919801;29;20642;-87
2021/03/07 02:31:55;;;;;;;2.40;1.60;;;2.70;75.10;;;;;;4915901;29;20590;-87
2021/03/07 02:34:29;;;;;;;2.33;1.73;;;2.70;75.00;;;;;;4899139;29;20040;-87
2021/03/07 02:36:58;;;;;;;2.70;1.73;;;2.70;75.00;;;;;;4916380;29;20403;-86
2021/03/07 02:39:28;;;;;;;2.92;2.08;;;2.80;74.90;;;;;;4917716;29;20029;-87
2021/03/07 02:41:59;;;;;;;3.47;2.00;;;2.80;74.80;;;;;;4914253;29;20942;-86
2021/03/07 02:44:29;;;;;;;3.13;1.80;;;2.80;74.80;;;;;;4916905;29;20024;-87
2021/03/07 02:46:56;;;;;;;4.28;1.88;;;2.70;74.70;;;;;;4899691;29;20043;-88
2021/03/07 02:49:23;;;;;;;3.30;1.90;;;2.70;74.60;;;;;;4899208;29;20020;-88
2021/03/07 02:51:49;;;;;;;2.10;1.63;;;2.70;74.60;;;;;;4917288;29;20028;-87
2021/03/07 02:54:17;;;;;;;2.15;1.70;;;2.70;74.50;;;;;;4892288;29;20056;-87
2021/03/07 02:56:47;;;;;;;2.30;1.52;;;2.70;74.50;;;;;;4899858;29;20436;-87
2021/03/07 02:59:14;;;;;;;2.00;1.60;;;2.70;74.50;;;;;;4912981;29;20031;-86
2021/03/07 03:01:41;;;;;;;3.03;1.70;;;2.70;74.60;;;;;;4911287;29;20451;-87
2021/03/07 03:04:07;;;;;;;3.03;1.58;;;2.60;74.50;;;;;;4915912;29;20083;-86
2021/03/07 03:06:37;;;;;;;2.28;1.88;;;2.70;74.50;;;;;;4916110;29;20024;-85
2021/03/07 03:09:09;;;;;;;3.28;1.88;;;2.60;74.50;;;;;;4897489;29;20036;-87
2021/03/07 03:11:38;;;;;;;2.47;1.60;;;2.60;74.40;;;;;;4917550;29;20119;-89
2021/03/07 03:14:07;;;;;;;2.25;1.60;;;2.60;74.40;;;;;;4905963;29;20091;-86
2021/03/07 03:16:34;;;;;;;4.05;1.95;;;2.50;74.30;;;;;;4935577;29;20035;-87
2021/03/07 03:19:04;;;;;;;3.70;1.80;;;2.50;74.30;;;;;;4918654;29;20044;-86
2021/03/07 03:21:30;;;;;;;4.35;1.92;;;2.40;74.30;;;;;;4916116;29;20036;-88
2021/03/07 03:23:56;;;;;;;2.38;1.90;;;2.40;74.30;;;;;;4915198;29;20582;-86
2021/03/07 03:26:23;;;;;;;2.63;1.70;;;2.50;74.40;;;;;;4915082;29;20047;-85
2021/03/07 03:28:51;;;;;;;3.42;1.80;;;2.40;74.30;;;;;;4899650;29;20134;-86
2021/03/07 03:31:16;;;;;;;2.65;1.83;;;2.40;74.40;;;;;;4898229;29;20027;-85
2021/03/07 03:33:42;;;;;;;3.72;1.92;;;2.40;74.30;;;;;;4916698;29;20039;-86
2021/03/07 03:36:08;;;;;;;3.30;1.73;;;2.30;74.30;;;;;;4911290;29;20171;-85
2021/03/07 03:38:40;;;;;;;3.17;1.92;;;2.30;74.30;;;;;;4899136;29;20115;-86
2021/03/07 03:41:09;;;;;;;2.00;1.60;;;2.30;74.30;;;;;;4899335;29;20500;-87
2021/03/07 03:43:37;;;;;;;2.33;1.77;;;2.30;74.20;;;;;;4898639;29;20519;-88
2021/03/07 03:46:05;;;;;;;3.22;2.00;;;2.30;74.10;;;;;;4904402;29;20040;-88
2021/03/07 03:48:37;;;;;;;2.15;1.70;;;2.30;74.10;;;;;;4898170;29;20084;-88
2021/03/07 03:51:06;;;;;;;2.80;1.70;;;2.30;74.00;;;;;;4909781;29;20111;-88
2021/03/07 03:53:33;;;;;;;2.58;1.80;;;2.20;74.00;;;;;;4916313;29;20038;-87
2021/03/07 03:56:00;;;;;;;2.90;1.73;;;2.20;74.00;;;;;;4915838;29;20028;-89
2021/03/07 03:58:33;;;;;;;2.83;1.80;;;2.20;74.00;;;;;;4916384;29;20072;-89
2021/03/07 04:01:00;;;;;;;2.38;1.55;;;2.20;74.00;;;;;;4921165;29;20103;-89
2021/03/07 04:03:26;;;;;;;4.53;1.75;;;2.20;74.00;;;;;;4917074;29;20043;-89
2021/03/07 04:05:53;;;;;;;3.08;1.73;;;2.20;73.90;;;;;;4890663;29;20021;-90
2021/03/07 04:08:20;;;;;;;2.05;1.50;;;2.20;74.00;;;;;;4897501;29;20027;-89
2021/03/07 04:10:47;;;;;;;1.88;1.50;;;2.20;74.00;;;;;;4920144;29;20110;-89
2021/03/07 04:13:16;;;;;;;2.25;1.50;;;2.20;74.00;;;;;;4896950;29;20028;-87
2021/03/07 04:15:43;;;;;;;2.38;1.52;;;2.20;74.00;;;;;;4891107;29;20111;-89
2021/03/07 04:18:12;;;;;;;2.78;1.50;;;2.20;73.90;;;;;;4916039;29;20649;-89
2021/03/07 04:20:38;;;;;;;2.03;1.30;;;2.20;73.90;;;;;;4915186;29;20038;-89
2021/03/07 04:23:04;;;;;;;1.88;1.60;;;2.10;73.80;;;;;;4915632;29;20079;-87
2021/03/07 04:25:30;;;;;;;1.55;1.40;;;2.10;73.90;;;;;;4916224;29;20059;-88
2021/03/07 04:27:56;;;;;;;1.75;1.50;;;2.10;74.00;;;;;;4910357;29;20027;-86
2021/03/07 04:30:22;;;;;;;2.75;1.63;;;2.00;74.00;;;;;;4914827;29;20513;-88
2021/03/07 04:32:49;;;;;;;3.03;1.70;;;2.00;74.00;;;;;;4900884;29;20035;-90
2021/03/07 04:35:16;;;;;;;1.70;1.50;;;2.00;74.00;;;;;;4914698;29;20032;-87
2021/03/07 04:37:42;;;;;;;1.83;1.48;;;1.90;73.90;;;;;;4914830;29;20036;-86
2021/03/07 04:40:08;;;;;;;2.17;1.45;;;1.90;74.00;;;;;;4897405;29;20364;-88
2021/03/07 04:42:34;;;;;;;2.90;1.40;;;1.90;73.90;;;;;;4915713;29;20036;-89
2021/03/07 04:45:02;;;;;;;2.05;1.55;;;1.90;73.90;;;;;;4914520;29;20072;-88
2021/03/07 04:47:27;;;;;;;3.38;1.70;;;1.90;73.90;;;;;;4918607;29;20125;-88
2021/03/07 04:49:53;;;;;;;2.13;1.42;;;1.90;73.80;;;;;;4916113;29;20028;-89
2021/03/07 04:52:18;;;;;;;3.95;1.60;;;1.90;73.80;;;;;;4915191;29;20054;-88
2021/03/07 04:54:44;;;;;;;3.05;1.40;;;1.80;73.80;;;;;;4915126;29;20040;-90
2021/03/07 04:57:10;;;;;;;3.80;1.80;;;1.90;73.80;;;;;;4898111;29;20043;-88
2021/03/07 04:59:36;;;;;;;2.55;1.60;;;1.80;73.70;;;;;;4915592;29;20016;-89
2021/03/07 05:02:02;;;;;;;3.40;1.50;;;1.90;73.70;;;;;;4916970;29;20038;-87
2021/03/07 05:04:28;;;;;;;1.80;1.40;;;1.80;73.60;;;;;;4912061;29;20080;-88
2021/03/07 05:06:54;;;;;;;3.30;1.55;;;1.80;73.70;;;;;;4896082;29;20028;-90
2021/03/07 05:09:19;;;;;;;2.10;1.65;;;1.70;73.70;;;;;;4903640;29;20044;-88
2021/03/07 05:11:45;;;;;;;1.85;1.50;;;1.70;73.70;;;;;;4916314;29;20107;-94
2021/03/07 05:14:10;;;;;;;3.22;1.60;;;1.70;73.70;;;;;;4916277;29;20036;-89
2021/03/07 05:16:36;;;;;;;4.60;1.80;;;1.70;73.80;;;;;;4898175;29;20402;-89
2021/03/07 05:19:03;;;;;;;1.58;1.48;;;1.70;73.80;;;;;;4914237;29;20047;-87
2021/03/07 05:21:29;;;;;;;1.98;1.50;;;1.60;74.30;;;;;;4911532;29;20031;-87
2021/03/07 05:23:55;;;;;;;2.85;1.70;;;1.60;73.70;;;;;;4896078;29;20036;-88
2021/03/07 05:26:21;;;;;;;2.75;1.50;;;1.70;73.70;;;;;;4914683;29;20028;-88
2021/03/07 05:28:47;;;;;;;2.33;1.58;;;1.70;73.60;;;;;;4896566;29;20024;-91
2021/03/07 05:31:13;;;;;;;3.15;1.67;;;1.70;73.50;;;;;;4894059;29;20126;-90
2021/03/07 05:33:38;;;;;;;2.88;1.65;;;1.70;73.50;;;;;;4920514;29;20459;-88
2021/03/07 05:36:04;;;;;;;2.80;1.70;;;1.70;73.60;;;;;;4914978;29;20119;-89
2021/03/07 05:38:30;;;;;;;3.15;1.50;;;1.70;73.60;;;;;;4919403;29;20067;-89
2021/03/07 05:40:56;;;;;;;2.83;1.50;;;1.70;73.50;;;;;;4898959;29;20051;-89
2021/03/07 05:43:23;;;;;;;2.60;1.65;;;1.80;73.40;;;;;;4913933;29;20159;-89
2021/03/07 05:45:49;;;;;;;3.25;1.95;;;1.90;73.20;;;;;;4913814;29;20095;-88
2021/03/07 05:48:14;;;;;;;2.47;1.70;;;1.90;73.10;;;;;;4915047;29;20107;-87
2021/03/07 05:50:41;;;;;;;3.13;1.25;;;2.00;73.10;;;;;;4915105;29;20487;-89
2021/03/07 05:53:07;;;;;;;3.65;1.60;;;2.00;73.00;;;;;;4927435;29;20024;-86
2021/03/07 05:55:34;;;;;;;2.42;1.45;;;2.10;72.90;;;;;;4907013;29;20035;-89
2021/03/07 05:58:01;;;;;;;2.30;1.50;;;2.20;72.80;;;;;;4914377;29;20048;-88
2021/03/07 06:00:27;;;;;;;1.40;1.30;;;2.20;72.70;;;;;;4916213;29;20487;-89
2021/03/07 06:02:53;;;;;;;2.03;1.38;;;2.20;72.70;;;;;;4914643;29;20039;-88
2021/03/07 06:05:19;;;;;;;1.92;1.65;;;2.20;72.70;;;;;;4913523;29;20016;-89
2021/03/07 06:07:48;;;;;;;2.53;1.40;;;2.30;72.70;;;;;;4897114;29;20028;-89
2021/03/07 06:10:28;;;;;;;1.90;1.30;;;2.30;72.80;;;;;;4919668;29;20016;-89
2021/03/07 06:13:01;;;;;;;1.60;1.50;;;2.30;72.80;;;;;;4923397;29;20456;-89
2021/03/07 06:15:27;;;;;;;2.50;1.40;;;2.30;72.70;;;;;;4895861;29;20535;-88
2021/03/07 06:17:53;;;;;;;2.05;1.50;;;2.30;72.70;;;;;;4913943;29;20047;-88
2021/03/07 06:20:21;;;;;;;2.22;1.60;;;2.30;72.80;;;;;;4908478;29;20021;-87
2021/03/07 06:22:53;;;;;;;1.65;1.40;;;2.30;72.90;;;;;;4904074;29;20031;-90
2021/03/07 06:25:19;;;;;;;3.38;1.60;;;2.40;73.00;;;;;;4904520;29;20111;-91
2021/03/07 06:27:45;;;;;;;2.63;1.63;;;2.40;72.80;;;;;;4920161;29;20020;-90
2021/03/07 06:30:17;;;;;;;2.65;1.75;;;2.40;72.70;;;;;;4903895;29;20056;-91
2021/03/07 06:32:50;;;;;;;1.75;1.50;;;2.40;72.70;;;;;;4901564;29;20035;-89
2021/03/07 06:35:19;;;;;;;3.25;2.08;;;2.50;72.70;;;;;;4900722;29;20020;-90
2021/03/07 06:37:54;;;;;;;3.75;2.13;;;2.50;72.70;;;;;;4917695;29;20064;-89
2021/03/07 06:40:44;;;;;;;3.58;1.90;;;2.40;72.70;;;;;;4918308;29;20028;-90
2021/03/07 06:43:25;;;;;;;1.65;1.55;;;2.40;72.60;;;;;;4908700;29;20056;-90
2021/03/07 06:45:51;;;;;;;2.03;1.60;;;2.30;72.70;;;;;;4903685;29;20035;-89
2021/03/07 06:48:17;;;;;;;1.95;1.70;;;2.20;72.70;;;;;;4918421;29;20482;-90
2021/03/07 06:50:52;;;;;;;2.45;2.05;;;2.10;72.90;;;;;;4918299;29;20111;-88
2021/03/07 06:53:36;;;;;;;2.70;2.00;;;2.00;73.10;;;;;;4922920;29;20032;-89
2021/03/07 06:56:02;;;;;;;1.75;1.55;;;2.00;73.40;;;;;;4925717;29;20283;-89
2021/03/07 06:58:28;;;;;;;3.17;1.90;;;2.00;73.40;;;;;;4922978;29;20040;-90
2021/03/07 07:00:54;;;;;;;3.83;1.70;;;2.00;73.60;;;;;;4923701;29;20545;-90
2021/03/07 07:03:20;;;;;;;2.47;2.03;;;2.00;73.70;;;;;;4925997;29;20039;-88
2021/03/07 07:05:48;;;;;;;2.75;1.60;;;2.00;73.80;;;;;;4926170;29;20024;-90
2021/03/07 07:08:15;;;;;;;1.88;1.70;;;2.00;73.90;;;;;;4932968;29;20031;-89
2021/03/07 07:10:53;;;;;;;2.10;1.90;;;2.10;74.10;;;;;;4900738;29;20127;-90
2021/03/07 07:13:29;;;;;;;2.85;2.00;;;2.10;74.00;;;;;;4911944;29;20119;-87
2021/03/07 07:16:03;;;;;;;2.97;2.00;;;2.20;74.00;;;;;;4899629;29;20028;-88
2021/03/07 07:18:31;;;;;;;2.45;1.83;;;2.20;74.00;;;;;;4900120;29;20036;-89
2021/03/07 07:20:58;;;;;;;2.60;2.00;;;2.30;74.00;;;;;;4916121;29;20024;-90
2021/03/07 07:23:25;;;;;;;2.13;1.77;;;2.30;74.00;;;;;;4915333;29;20034;-95
2021/03/07 07:25:51;;;;;;;2.33;1.90;;;2.40;73.90;;;;;;4902685;29;20032;-92
2021/03/07 07:28:17;;;;;;;2.90;1.95;;;2.40;73.90;;;;;;4917906;29;20032;-94
2021/03/07 07:30:59;;;;;;;2.28;1.90;;;2.50;73.90;;;;;;4918088;29;20043;-91
2021/03/07 07:33:49;;;;;;;2.72;2.30;;;2.50;73.80;;;;;;4915611;29;20035;-94
2021/03/07 07:36:28;;;;;;;2.78;2.05;;;2.70;73.80;;;;;;4911192;29;20360;-92
2021/03/07 07:38:56;;;;;;;3.17;1.98;;;2.70;73.70;;;;;;4909199;29;20044;-89
2021/03/07 07:41:36;;;;;;;4.05;1.95;;;2.80;73.60;;;;;;4913611;29;20074;-91
2021/03/07 07:44:04;;;;;;;2.15;1.90;;;2.90;73.70;;;;;;4901298;29;20056;-92
2021/03/07 07:46:31;;;;;;;2.47;1.75;;;2.90;73.60;;;;;;4929553;29;20027;-94
2021/03/07 07:48:57;;;;;;;3.30;1.90;;;3.00;73.50;;;;;;4900244;29;20710;-91
2021/03/07 07:51:37;;;;;;;3.13;2.20;;;3.10;73.50;;;;;;4893471;29;20586;-91
2021/03/07 07:54:05;;;;;;;2.53;2.00;;;3.20;73.60;;;;;;4887094;29;20467;-93
2021/03/07 07:56:43;;;;;;;3.50;1.90;;;3.30;73.40;;;;;;4899233;29;20087;-92
2021/03/07 07:59:11;;;;;;;3.35;1.88;;;3.40;73.30;;;;;;4923862;29;20035;-93
2021/03/07 08:01:49;;;;;;;2.47;2.00;;;3.50;73.20;;;;;;4935955;29;20110;-93
2021/03/07 08:04:34;;;;;;;1.90;1.70;;;3.60;73.10;;;;;;4925859;29;20032;-93
2021/03/07 08:07:00;;;;;;;1.83;1.63;;;3.60;72.90;;;;;;4936704;29;20036;-94
2021/03/07 08:09:36;;;;;;;2.88;1.75;;;3.70;72.80;;;;;;4917410;29;20051;-93
2021/03/07 08:12:42;;;;;;;3.13;1.83;;;3.80;72.90;;;;;;4918091;29;20028;-93
2021/03/07 08:15:27;;;;;;;3.55;2.00;;;3.90;72.80;;;;;;4915777;29;20036;-94
2021/03/07 08:17:57;;;;;;;2.80;1.65;;;4.00;72.60;;;;;;4894799;29;20036;-94
2021/03/07 08:20:38;;;;;;;2.10;1.70;;;4.10;72.60;;;;;;4901067;29;20051;-93
2021/03/07 08:23:08;;;;;;;1.83;1.63;;;4.10;72.50;;;;;;4897957;29;20399;-93
2021/03/07 08:25:46;;;;;;;3.45;1.88;;;4.20;72.50;;;;;;4904188;29;20523;-95
2021/03/07 08:28:29;;;;;;;4.30;2.22;;;4.30;72.50;;;;;;4902322;29;20028;-94
2021/03/07 08:30:59;;;;;;;3.00;2.22;;;4.30;72.50;;;;;;4896456;29;20135;-93
2021/03/07 08:33:28;;;;;;;1.60;1.50;;;4.30;72.60;;;;;;4930333;29;20125;-93
2021/03/07 08:36:15;;;;;;;2.92;1.92;;;4.40;72.60;;;;;;4921190;29;20506;-94
2021/03/07 08:38:52;;;;;;;4.75;2.00;;;4.40;72.60;;;;;;4918473;29;20237;-95
2021/03/07 08:41:42;;;;;;;2.78;1.90;;;4.50;72.50;;;;;;4917658;29;20020;-96
2021/03/07 08:44:14;;;;;;;3.95;2.30;;;4.60;72.40;;;;;;4900851;29;20039;-92
2021/03/07 08:46:40;;;;;;;2.72;2.00;;;4.60;72.10;;;;;;4881978;29;20047;-93
2021/03/07 08:49:10;;;;;;;2.33;1.95;;;4.70;72.00;;;;;;4917353;29;20028;-95
2021/03/07 08:51:38;;;;;;;2.80;2.08;;;4.80;71.70;;;;;;4903124;29;20024;-93
2021/03/07 08:54:07;;;;;;;2.63;2.00;;;4.90;71.50;;;;;;4899880;29;20020;-94
2021/03/07 08:56:32;;;;;;;2.50;1.95;;;5.00;71.30;;;;;;4916608;29;20086;-95
2021/03/07 08:58:58;;;;;;;2.97;2.45;;;5.00;71.10;;;;;;4916723;29;20028;-95
2021/03/07 09:01:25;;;;;;;7.80;4.70;;;5.10;71.00;;;;;;4923476;29;20036;-96
2021/03/07 09:03:57;;;;;;;3.85;2.85;;;5.10;71.40;;;;;;4925779;29;20019;-95
2021/03/07 09:06:33;;;;;;;6.35;2.53;;;5.20;70.50;;;;;;4938427;29;20035;-94
2021/03/07 09:09:06;;;;;;;3.00;2.50;;;5.20;70.10;;;;;;4922866;29;20024;-94
2021/03/07 09:12:02;;;;;;;3.03;2.30;;;5.20;70.00;;;;;;4905417;29;20023;-93
2021/03/07 09:14:39;;;;;;;3.53;2.33;;;5.30;69.90;;;;;;4902536;29;20040;-95
2021/03/07 09:17:08;;;;;;;2.10;1.70;;;5.40;69.40;;;;;;4909832;29;20038;-96
2021/03/07 09:19:35;;;;;;;2.95;1.75;;;5.60;69.20;;;;;;4900398;29;20035;-95
2021/03/07 09:22:11;;;;;;;2.50;2.00;;;5.70;68.80;;;;;;4916902;29;20088;-94
2021/03/07 09:24:37;;;;;;;4.63;2.40;;;5.80;68.40;;;;;;4915279;29;20514;-94
2021/03/07 09:27:08;;;;;;;3.38;2.38;;;6.00;68.10;;;;;;4908867;29;20028;-95
2021/03/07 09:29:33;;;;;;;4.13;1.80;;;6.10;67.20;;;;;;4913529;29;20048;-95
2021/03/07 09:31:59;;;;;;;2.17;1.88;;;6.20;66.70;;;;;;4916658;29;20028;-93
2021/03/07 09:34:31;;;;;;;1.90;1.70;;;6.30;66.00;;;;;;4899579;29;20051;-94
2021/03/07 09:36:57;;;;;;;1.58;1.17;;;6.30;65.70;;;;;;4897847;29;20032;-94
2021/03/07 09:39:23;;;;;;;1.73;1.40;;;6.40;65.30;;;;;;4903935;29;20124;-94
2021/03/07 09:41:49;;;;;;;1.80;1.40;;;6.40;64.30;;;;;;4910302;29;20025;-94
2021/03/07 09:44:18;;;;;;;1.10;1.00;;;6.40;63.10;;;;;;4917626;29;20484;-96
2021/03/07 09:46:45;;;;;;;1.65;1.45;;;6.50;62.90;;;;;;4914511;29;20036;-96
2021/03/07 09:49:16;;;;;;;1.85;1.30;;;6.50;62.60;;;;;;4917695;29;20035;-96
2021/03/07 09:51:43;;;;;;;2.35;1.58;;;6.50;62.40;;;;;;4922662;29;20099;-95
2021/03/07 09:54:10;;;;;;;1.30;1.10;;;6.60;61.90;;;;;;4911204;29;20031;-96
2021/03/07 09:56:37;;;;;;;2.13;1.45;;;6.60;61.90;;;;;;4914547;29;20667;-96
2021/03/07 09:59:26;;;;;;;1.50;1.13;;;6.70;61.60;;;;;;4895470;29;20373;-94
2021/03/07 10:01:53;;;;;;;1.35;1.00;;;6.80;61.40;;;;;;4907472;29;20020;-96
2021/03/07 10:04:47;;;;;;;1.15;1.05;;;6.90;61.10;;;;;;4911883;29;20033;-96
2021/03/07 10:07:20;;;;;;;1.73;1.17;;;6.90;60.60;;;;;;4903208;29;20048;-96
2021/03/07 10:10:06;;;;;;;2.08;1.45;;;7.00;60.20;;;;;;4913774;29;20028;-93
2021/03/07 10:12:59;;;;;;;1.48;1.33;;;7.10;59.50;;;;;;4924026;29;20035;-96
2021/03/07 10:15:33;;;;;;;1.27;1.17;;;7.10;59.20;;;;;;4917374;29;20040;-96
2021/03/07 10:18:16;;;;;;;1.00;1.00;;;7.20;59.40;;;;;;4912010;29;20119;-96
2021/03/07 10:20:45;;;;;;;1.27;1.10;;;7.30;59.30;;;;;;4914722;29;20772;-95
2021/03/07 10:23:12;;;;;;;2.40;1.50;;;7.30;58.90;;;;;;4914595;29;20493;-95
2021/03/07 10:25:39;;;;;;;2.00;1.75;;;7.30;58.30;;;;;;4919347;29;20043;-96
2021/03/07 10:28:26;;;;;;;1.80;1.60;;;7.30;57.30;;;;;;4928242;29;20028;-95
2021/03/07 10:30:53;;;;;;;2.83;1.40;;;7.30;58.10;;;;;;4885583;29;20039;-96
2021/03/07 10:33:26;;;;;;;1.40;1.30;;;7.30;56.90;;;;;;4913141;29;20052;-96
2021/03/07 10:36:03;;;;;;;1.60;1.50;;;7.10;56.70;;;;;;4891872;29;20036;-96
2021/03/07 10:38:36;;;;;;;1.45;1.30;;;7.00;55.80;;;;;;4893557;29;20044;-95
2021/03/07 10:41:30;;;;;;;1.15;1.05;;;7.10;56.20;;;;;;4927642;29;20020;-96
2021/03/07 10:44:02;;;;;;;2.10;1.40;;;7.10;56.50;;;;;;4899320;29;20124;-96
2021/03/07 10:46:42;;;;;;;1.50;1.40;;;7.20;56.10;;;;;;4928180;29;20116;-95
2021/03/07 10:49:09;;;;;;;1.20;1.10;;;7.20;55.90;;;;;;4919413;29;20035;-95
2021/03/07 10:51:36;;;;;;;1.33;1.00;;;7.30;55.60;;;;;;4921597;29;20168;-96
2021/03/07 10:54:02;;;;;;;2.13;1.20;;;7.50;55.40;;;;;;4895024;29;20024;-96
2021/03/07 10:56:32;;;;;;;0.85;0.80;;;7.60;54.90;;;;;;4922484;29;20042;-95
2021/03/07 10:58:59;;;;;;;1.05;0.93;;;7.70;54.70;;;;;;4921679;29;20056;-94
2021/03/07 11:01:28;;;;;;;1.30;1.05;;;7.90;54.80;;;;;;4915706;29;20024;-95
2021/03/07 11:03:53;;;;;;;2.72;1.85;;;7.80;53.00;;;;;;4898884;29;20029;-92
2021/03/07 11:06:20;;;;;;;2.17;1.40;;;7.80;52.90;;;;;;4914899;29;20030;-91
2021/03/07 11:08:50;;;;;;;2.00;1.42;;;7.70;52.10;;;;;;4907958;29;20379;-92
2021/03/07 11:11:17;;;;;;;3.70;1.60;;;7.60;51.40;;;;;;4919976;29;20028;-94
2021/03/07 11:13:43;;;;;;;1.50;1.23;;;7.60;51.60;;;;;;4918335;29;20032;-94
2021/03/07 11:16:08;;;;;;;1.20;1.05;;;7.70;52.20;;;;;;4910194;29;20516;-93
2021/03/07 11:18:35;;;;;;;1.73;1.08;;;7.80;52.30;;;;;;4910313;29;20070;-95
2021/03/07 11:21:00;;;;;;;1.30;1.00;;;7.90;52.10;;;;;;4904366;29;20074;-92
2021/03/07 11:23:26;;;;;;;1.45;1.08;;;8.00;51.80;;;;;;4920039;29;20157;-93
2021/03/07 11:25:52;;;;;;;1.80;1.13;;;7.90;51.90;;;;;;4922606;29;20032;-95
2021/03/07 11:28:17;;;;;;;1.50;1.08;;;8.00;52.00;;;;;;4898507;29;20163;-92
2021/03/07 11:30:43;;;;;;;1.10;1.00;;;7.90;51.60;;;;;;4921480;29;20111;-91
2021/03/07 11:33:09;;;;;;;2.13;1.02;;;7.80;51.60;;;;;;4902180;29;20020;-92
2021/03/07 11:35:35;;;;;;;1.85;1.13;;;7.80;51.20;;;;;;4919351;29;20009;-94
2021/03/07 11:38:00;;;;;;;1.10;1.00;;;7.90;51.30;;;;;;4920410;29;20050;-93
2021/03/07 11:40:26;;;;;;;4.70;1.80;;;8.10;51.60;;;;;;4910796;29;20022;-92
2021/03/07 11:42:53;;;;;;;1.80;1.33;;;8.20;50.10;;;;;;4900375;29;20072;-91
2021/03/07 11:45:18;;;;;;;1.58;1.30;;;8.10;50.60;;;;;;4905444;29;20050;-92
2021/03/07 11:47:44;;;;;;;1.25;1.10;;;8.10;50.70;;;;;;4927266;29;20023;-96
2021/03/07 11:50:10;;;;;;;1.55;0.93;;;8.10;50.70;;;;;;4928425;29;20094;-96
2021/03/07 11:52:36;;;;;;;2.00;1.17;;;8.10;50.50;;;;;;4919932;29;20032;-96
2021/03/07 11:55:02;;;;;;;2.53;1.73;;;8.20;50.90;;;;;;4902245;29;20506;-96
2021/03/07 11:57:27;;;;;;;1.98;1.30;;;8.20;50.20;;;;;;4907615;29;20040;-96
2021/03/07 12:02:36;;;;;;;2.00;1.55;;;8.20;50.40;;;;;;5370593;23;20494;-96
2021/03/07 12:05:04;;;;;;;5.20;1.70;;;8.10;50.00;;;;;;4986060;28;20054;-96
2021/03/07 12:10:08;;;;;;;1.58;1.30;;;8.20;50.60;;;;;;5142734;23;20054;-96
2021/03/07 12:12:48;;;;;;;2.35;1.50;;;8.30;50.80;;;;;;4984381;28;20041;-96
2021/03/07 12:15:14;;;;;;;2.58;1.80;;;8.30;50.50;;;;;;4972089;28;20023;-94
2021/03/07 12:17:39;;;;;;;3.05;1.75;;;8.30;50.00;;;;;;4983728;28;20473;-95
2021/03/07 12:20:10;;;;;;;2.15;1.40;;;8.40;50.20;;;;;;4991954;28;20027;-96
2021/03/07 12:22:36;;;;;;;1.90;1.30;;;8.40;51.00;;;;;;4992097;28;20031;-95
2021/03/07 12:25:03;;;;;;;1.88;1.50;;;8.50;50.10;;;;;;4981013;28;20026;-96
2021/03/07 12:27:28;;;;;;;2.03;1.60;;;8.60;50.00;;;;;;4996351;28;20049;-95
2021/03/07 12:29:54;;;;;;;2.42;1.80;;;8.60;49.80;;;;;;5001882;28;20082;-96
2021/03/07 12:32:21;;;;;;;3.03;1.73;;;8.50;50.10;;;;;;4999907;28;20050;-96
2021/03/07 12:34:53;;;;;;;4.03;2.45;;;8.50;50.40;;;;;;4995870;28;20030;-96
2021/03/07 12:37:19;;;;;;;3.40;1.75;;;8.40;50.50;;;;;;4987311;28;20066;-95
2021/03/07 12:39:45;;;;;;;2.78;1.80;;;8.30;50.10;;;;;;4980679;28;20478;-93
2021/03/07 12:42:10;;;;;;;2.67;1.40;;;8.20;50.10;;;;;;4980842;28;20054;-94
2021/03/07 12:44:36;;;;;;;1.67;1.40;;;8.20;50.30;;;;;;4983718;28;20198;-90
2021/03/07 12:47:02;;;;;;;1.45;1.20;;;8.20;50.50;;;;;;4994540;28;20084;-93
2021/03/07 12:49:27;;;;;;;1.60;1.17;;;8.20;50.50;;;;;;4993788;28;20022;-91
2021/03/07 12:51:53;;;;;;;2.00;1.60;;;8.20;50.30;;;;;;4991924;28;20469;-91
2021/03/07 12:54:19;;;;;;;2.08;1.30;;;8.20;50.10;;;;;;4977337;28;20027;-92
2021/03/07 12:56:44;;;;;;;1.40;1.23;;;8.20;50.00;;;;;;4984713;28;20059;-90
2021/03/07 12:59:10;;;;;;;2.15;1.40;;;8.20;50.00;;;;;;4991568;28;20042;-92
2021/03/07 13:01:35;;;;;;;4.82;1.67;;;8.10;50.10;;;;;;4989475;28;20065;-92
2021/03/07 13:04:01;;;;;;;1.55;1.40;;;8.10;50.20;;;;;;4995432;28;20652;-92
2021/03/07 13:06:26;;;;;;;2.58;1.42;;;8.00;50.50;;;;;;4995208;28;20105;-95
2021/03/07 13:09:05;;;;;;;2.67;1.70;;;7.90;50.80;;;;;;4979449;28;20467;-92
2021/03/07 13:11:31;;;;;;;1.80;1.70;;;7.90;51.10;;;;;;4993065;28;20034;-95
2021/03/07 13:13:58;;;;;;;2.55;1.70;;;7.80;51.20;;;;;;4992711;28;20060;-91